sensor_id;sensor_type;location;lat;lon;timestamp;pressure;altitude;pressure_sealevel;temperature;humidity
56006;BME280;41888;44.696;10.522;2023-06-22T00:00:52;100786.81;;;24.24;100.00
56006;BME280;41888;44.696;10.522;2023-06-22T00:03:21;100777.19;;;24.37;100.00
56006;BME280;41888;44.696;10.522;2023-06-22T00:05:48;100774.56;;;24.51;100.00
56006;BME280;41888;44.696;10.522;2023-06-22T00:08:15;100776.31;;;24.42;100.00
56006;BME280;41888;44.696;10.522;2023-06-22T00:10:42;100790.84;;;24.32;100.00
56006;BME280;41888;44.696;10.522;2023-06-22T00:13:09;100793.28;;;24.28;100.00
56006;BME280;41888;44.696;10.522;2023-06-22T00:15:37;100788.56;;;24.39;100.00
56006;BME280;41888;44.696;10.522;2023-06-22T00:18:04;100795.19;;;24.28;100.00
56006;BME280;41888;44.696;10.522;2023-06-22T00:20:31;100795.16;;;24.33;100.00
56006;BME280;41888;44.696;10.522;2023-06-22T00:22:59;100798.53;;;24.49;100.00
56006;BME280;41888;44.696;10.522;2023-06-22T00:25:25;100788.94;;;24.27;100.00
56006;BME280;41888;44.696;10.522;2023-06-22T00:27:52;100790.47;;;24.10;100.00
56006;BME280;41888;44.696;10.522;2023-06-22T00:30:18;100792.59;;;24.13;100.00
56006;BME280;41888;44.696;10.522;2023-06-22T00:32:45;100790.97;;;24.12;100.00
56006;BME280;41888;44.696;10.522;2023-06-22T00:35:15;100788.84;;;24.09;100.00
56006;BME280;41888;44.696;10.522;2023-06-22T00:37:41;100779.94;;;23.98;100.00
56006;BME280;41888;44.696;10.522;2023-06-22T00:40:09;100775.38;;;23.93;100.00
56006;BME280;41888;44.696;10.522;2023-06-22T00:42:38;100775.19;;;24.14;100.00
56006;BME280;41888;44.696;10.522;2023-06-22T00:45:05;100773.66;;;24.03;100.00
56006;BME280;41888;44.696;10.522;2023-06-22T00:47:32;100769.84;;;24.04;100.00
56006;BME280;41888;44.696;10.522;2023-06-22T00:50:00;100762.28;;;23.95;100.00
56006;BME280;41888;44.696;10.522;2023-06-22T00:52:27;100761.84;;;23.88;100.00
56006;BME280;41888;44.696;10.522;2023-06-22T00:54:55;100764.09;;;23.76;100.00
56006;BME280;41888;44.696;10.522;2023-06-22T00:57:24;100770.97;;;23.69;100.00
56006;BME280;41888;44.696;10.522;2023-06-22T00:59:52;100772.59;;;23.65;100.00
56006;BME280;41888;44.696;10.522;2023-06-22T01:02:18;100769.91;;;23.60;100.00
56006;BME280;41888;44.696;10.522;2023-06-22T01:04:44;100776.34;;;23.74;100.00
56006;BME280;41888;44.696;10.522;2023-06-22T01:07:34;100779.22;;;23.87;100.00
56006;BME280;41888;44.696;10.522;2023-06-22T01:10:08;100770.94;;;24.03;100.00
56006;BME280;41888;44.696;10.522;2023-06-22T01:12:44;100778.28;;;24.02;100.00
56006;BME280;41888;44.696;10.522;2023-06-22T01:15:16;100786.47;;;23.97;100.00
56006;BME280;41888;44.696;10.522;2023-06-22T01:17:44;100782.91;;;24.02;100.00
56006;BME280;41888;44.696;10.522;2023-06-22T01:20:13;100779.63;;;24.05;100.00
56006;BME280;41888;44.696;10.522;2023-06-22T01:25:41;100783.06;;;24.15;100.00
56006;BME280;41888;44.696;10.522;2023-06-22T01:28:45;100777.38;;;24.12;100.00
56006;BME280;41888;44.696;10.522;2023-06-22T01:31:16;100793.63;;;24.17;100.00
56006;BME280;41888;44.696;10.522;2023-06-22T01:33:45;100798.56;;;24.15;100.00
56006;BME280;41888;44.696;10.522;2023-06-22T01:36:13;100795.91;;;24.10;100.00
56006;BME280;41888;44.696;10.522;2023-06-22T01:38:40;100803.47;;;24.13;100.00
56006;BME280;41888;44.696;10.522;2023-06-22T01:41:08;100801.34;;;24.10;100.00
56006;BME280;41888;44.696;10.522;2023-06-22T01:43:35;100790.78;;;24.03;100.00
56006;BME280;41888;44.696;10.522;2023-06-22T01:46:02;100794.72;;;23.87;100.00
56006;BME280;41888;44.696;10.522;2023-06-22T01:48:28;100791.91;;;23.97;100.00
56006;BME280;41888;44.696;10.522;2023-06-22T01:50:55;100799.28;;;23.91;100.00
56006;BME280;41888;44.696;10.522;2023-06-22T01:53:23;100812.19;;;23.76;100.00
56006;BME280;41888;44.696;10.522;2023-06-22T01:55:49;100806.63;;;23.57;100.00
56006;BME280;41888;44.696;10.522;2023-06-22T01:58:16;100821.25;;;23.61;100.00
56006;BME280;41888;44.696;10.522;2023-06-22T02:00:52;100822.31;;;23.65;100.00
56006;BME280;41888;44.696;10.522;2023-06-22T02:03:26;100823.22;;;23.50;100.00
56006;BME280;41888;44.696;10.522;2023-06-22T02:06:02;100825.19;;;23.35;100.00
56006;BME280;41888;44.696;10.522;2023-06-22T02:08:41;100820.88;;;23.29;100.00
56006;BME280;41888;44.696;10.522;2023-06-22T02:11:09;100814.91;;;23.32;100.00
56006;BME280;41888;44.696;10.522;2023-06-22T02:13:38;100829.53;;;23.36;100.00
56006;BME280;41888;44.696;10.522;2023-06-22T02:16:10;100827.09;;;23.34;100.00
56006;BME280;41888;44.696;10.522;2023-06-22T02:18:37;100829.53;;;23.36;100.00
56006;BME280;41888;44.696;10.522;2023-06-22T02:21:04;100818.13;;;23.34;100.00
56006;BME280;41888;44.696;10.522;2023-06-22T02:23:30;100810.22;;;23.37;100.00
56006;BME280;41888;44.696;10.522;2023-06-22T02:25:58;100811.31;;;23.46;100.00
56006;BME280;41888;44.696;10.522;2023-06-22T02:28:25;100813.72;;;23.43;100.00
56006;BME280;41888;44.696;10.522;2023-06-22T02:30:51;100808.03;;;23.49;100.00
56006;BME280;41888;44.696;10.522;2023-06-22T02:33:17;100801.63;;;23.69;100.00
56006;BME280;41888;44.696;10.522;2023-06-22T02:35:43;100810.97;;;23.58;100.00
56006;BME280;41888;44.696;10.522;2023-06-22T02:38:13;100816.41;;;23.53;100.00
56006;BME280;41888;44.696;10.522;2023-06-22T02:40:40;100824.03;;;23.51;100.00
56006;BME280;41888;44.696;10.522;2023-06-22T02:43:06;100821.31;;;23.51;100.00
56006;BME280;41888;44.696;10.522;2023-06-22T02:45:32;100825.69;;;23.47;100.00
56006;BME280;41888;44.696;10.522;2023-06-22T02:47:59;100827.22;;;23.63;100.00
56006;BME280;41888;44.696;10.522;2023-06-22T02:50:25;100832.63;;;23.68;100.00
56006;BME280;41888;44.696;10.522;2023-06-22T02:52:51;100826.16;;;23.59;100.00
56006;BME280;41888;44.696;10.522;2023-06-22T02:55:17;100826.69;;;23.61;100.00
56006;BME280;41888;44.696;10.522;2023-06-22T02:57:44;100823.19;;;23.55;100.00
56006;BME280;41888;44.696;10.522;2023-06-22T03:00:13;100825.94;;;23.50;100.00
56006;BME280;41888;44.696;10.522;2023-06-22T03:02:47;100821.13;;;23.27;100.00
56006;BME280;41888;44.696;10.522;2023-06-22T03:05:17;100822.47;;;23.35;100.00
56006;BME280;41888;44.696;10.522;2023-06-22T03:07:47;100828.16;;;23.38;100.00
56006;BME280;41888;44.696;10.522;2023-06-22T03:10:13;100822.13;;;23.51;100.00
56006;BME280;41888;44.696;10.522;2023-06-22T03:12:41;100827.28;;;23.53;100.00
56006;BME280;41888;44.696;10.522;2023-06-22T03:15:09;100830.81;;;23.53;100.00
56006;BME280;41888;44.696;10.522;2023-06-22T03:17:37;100832.25;;;23.36;100.00
56006;BME280;41888;44.696;10.522;2023-06-22T03:20:05;100832.03;;;23.22;100.00
56006;BME280;41888;44.696;10.522;2023-06-22T03:22:36;100844.56;;;23.13;100.00
56006;BME280;41888;44.696;10.522;2023-06-22T03:25:03;100838.34;;;23.07;100.00
56006;BME280;41888;44.696;10.522;2023-06-22T03:27:30;100842.38;;;23.15;100.00
56006;BME280;41888;44.696;10.522;2023-06-22T03:29:57;100837.94;;;23.34;100.00
56006;BME280;41888;44.696;10.522;2023-06-22T03:32:23;100838.50;;;23.36;100.00
56006;BME280;41888;44.696;10.522;2023-06-22T03:34:50;100842.03;;;23.37;100.00
56006;BME280;41888;44.696;10.522;2023-06-22T03:37:16;100841.22;;;23.36;100.00
56006;BME280;41888;44.696;10.522;2023-06-22T03:39:42;100837.94;;;23.34;100.00
56006;BME280;41888;44.696;10.522;2023-06-22T03:42:08;100842.88;;;23.22;100.00
56006;BME280;41888;44.696;10.522;2023-06-22T03:44:35;100839.94;;;23.13;100.00
56006;BME280;41888;44.696;10.522;2023-06-22T03:47:03;100850.22;;;23.16;100.00
56006;BME280;41888;44.696;10.522;2023-06-22T03:49:30;100843.47;;;23.14;100.00
56006;BME280;41888;44.696;10.522;2023-06-22T03:51:56;100846.56;;;22.82;100.00
56006;BME280;41888;44.696;10.522;2023-06-22T03:54:22;100843.31;;;22.80;100.00
56006;BME280;41888;44.696;10.522;2023-06-22T03:56:48;100835.13;;;22.95;100.00
56006;BME280;41888;44.696;10.522;2023-06-22T03:59:14;100833.50;;;22.99;100.00
56006;BME280;41888;44.696;10.522;2023-06-22T04:01:41;100835.34;;;23.09;100.00
56006;BME280;41888;44.696;10.522;2023-06-22T04:04:07;100826.41;;;23.03;100.00
56006;BME280;41888;44.696;10.522;2023-06-22T04:06:33;100835.06;;;23.05;100.00
56006;BME280;41888;44.696;10.522;2023-06-22T04:09:00;100837.22;;;23.13;100.00
56006;BME280;41888;44.696;10.522;2023-06-22T04:11:26;100836.69;;;23.11;100.00
56006;BME280;41888;44.696;10.522;2023-06-22T04:13:52;100839.16;;;23.08;100.00
56006;BME280;41888;44.696;10.522;2023-06-22T04:16:19;100846.47;;;23.07;100.00
56006;BME280;41888;44.696;10.522;2023-06-22T04:18:45;100843.75;;;23.12;100.00
56006;BME280;41888;44.696;10.522;2023-06-22T04:21:12;100844.00;;;23.11;100.00
56006;BME280;41888;44.696;10.522;2023-06-22T04:23:38;100837.78;;;23.05;100.00
56006;BME280;41888;44.696;10.522;2023-06-22T04:26:05;100840.25;;;23.02;100.00
56006;BME280;41888;44.696;10.522;2023-06-22T04:28:31;100844.53;;;23.18;100.00
56006;BME280;41888;44.696;10.522;2023-06-22T04:31:02;100840.44;;;23.26;100.00
56006;BME280;41888;44.696;10.522;2023-06-22T04:33:28;100846.94;;;23.30;100.00
56006;BME280;41888;44.696;10.522;2023-06-22T04:35:55;100850.44;;;23.35;100.00
56006;BME280;41888;44.696;10.522;2023-06-22T04:38:26;100840.13;;;23.32;100.00
56006;BME280;41888;44.696;10.522;2023-06-22T04:40:53;100844.22;;;23.30;100.00
56006;BME280;41888;44.696;10.522;2023-06-22T04:43:20;100846.63;;;23.36;100.00
56006;BME280;41888;44.696;10.522;2023-06-22T04:45:46;100836.22;;;23.53;100.00
56006;BME280;41888;44.696;10.522;2023-06-22T04:48:12;100832.63;;;23.68;100.00
56006;BME280;41888;44.696;10.522;2023-06-22T04:50:42;100826.84;;;23.75;100.00
56006;BME280;41888;44.696;10.522;2023-06-22T04:53:08;100828.09;;;23.92;100.00
56006;BME280;41888;44.696;10.522;2023-06-22T04:55:35;100828.19;;;23.82;100.00
56006;BME280;41888;44.696;10.522;2023-06-22T04:58:04;100825.50;;;23.77;100.00
56006;BME280;41888;44.696;10.522;2023-06-22T05:00:33;100832.91;;;24.06;100.00
56006;BME280;41888;44.696;10.522;2023-06-22T05:03:02;100835.53;;;24.21;100.00
56006;BME280;41888;44.696;10.522;2023-06-22T05:05:29;100832.03;;;24.44;100.00
56006;BME280;41888;44.696;10.522;2023-06-22T05:07:57;100839.97;;;24.40;100.00
56006;BME280;41888;44.696;10.522;2023-06-22T05:10:26;100844.69;;;24.30;100.00
56006;BME280;41888;44.696;10.522;2023-06-22T05:12:53;100833.03;;;24.53;100.00
56006;BME280;41888;44.696;10.522;2023-06-22T05:15:19;100835.94;;;24.62;100.00
56006;BME280;41888;44.696;10.522;2023-06-22T05:17:45;100839.09;;;24.74;100.00
56006;BME280;41888;44.696;10.522;2023-06-22T05:20:12;100834.19;;;24.71;100.00
56006;BME280;41888;44.696;10.522;2023-06-22T05:22:41;100833.97;;;24.67;100.00
56006;BME280;41888;44.696;10.522;2023-06-22T05:25:10;100820.16;;;24.64;100.00
56006;BME280;41888;44.696;10.522;2023-06-22T05:27:37;100826.44;;;24.59;100.00
56006;BME280;41888;44.696;10.522;2023-06-22T05:30:09;100826.38;;;24.64;100.00
56006;BME280;41888;44.696;10.522;2023-06-22T05:32:36;100818.31;;;24.54;100.00
56006;BME280;41888;44.696;10.522;2023-06-22T05:35:03;100819.84;;;24.65;100.00
56006;BME280;41888;44.696;10.522;2023-06-22T05:37:30;100806.66;;;24.77;100.00
56006;BME280;41888;44.696;10.522;2023-06-22T05:39:56;100818.69;;;24.71;100.00
56006;BME280;41888;44.696;10.522;2023-06-22T05:42:23;100823.38;;;24.95;100.00
56006;BME280;41888;44.696;10.522;2023-06-22T05:44:52;100819.50;;;25.19;100.00
56006;BME280;41888;44.696;10.522;2023-06-22T05:47:19;100818.88;;;25.65;100.00
56006;BME280;41888;44.696;10.522;2023-06-22T05:49:45;100823.06;;;25.95;100.00
56006;BME280;41888;44.696;10.522;2023-06-22T05:52:11;100829.13;;;26.24;100.00
56006;BME280;41888;44.696;10.522;2023-06-22T05:54:37;100838.78;;;26.35;100.00
56006;BME280;41888;44.696;10.522;2023-06-22T05:57:05;100830.00;;;26.52;100.00
56006;BME280;41888;44.696;10.522;2023-06-22T05:59:31;100841.84;;;26.47;100.00
56006;BME280;41888;44.696;10.522;2023-06-22T06:01:57;100840.03;;;26.70;100.00
56006;BME280;41888;44.696;10.522;2023-06-22T06:04:23;100838.28;;;26.47;100.00
56006;BME280;41888;44.696;10.522;2023-06-22T06:06:49;100837.63;;;26.69;100.00
56006;BME280;41888;44.696;10.522;2023-06-22T06:09:15;100842.59;;;26.80;100.00
56006;BME280;41888;44.696;10.522;2023-06-22T06:11:42;100839.97;;;26.75;100.00
56006;BME280;41888;44.696;10.522;2023-06-22T06:14:08;100842.66;;;26.62;100.00
56006;BME280;41888;44.696;10.522;2023-06-22T06:16:34;100837.19;;;26.48;100.00
56006;BME280;41888;44.696;10.522;2023-06-22T06:19:00;100836.13;;;26.30;100.00
56006;BME280;41888;44.696;10.522;2023-06-22T06:21:27;100840.34;;;26.23;100.00
56006;BME280;41888;44.696;10.522;2023-06-22T06:23:53;100845.84;;;26.36;100.00
56006;BME280;41888;44.696;10.522;2023-06-22T06:26:19;100842.69;;;27.03;100.00
56006;BME280;41888;44.696;10.522;2023-06-22T06:28:54;100839.53;;;27.37;100.00
56006;BME280;41888;44.696;10.522;2023-06-22T06:31:20;100836.13;;;27.67;100.00
56006;BME280;41888;44.696;10.522;2023-06-22T06:33:47;100832.22;;;28.18;100.00
56006;BME280;41888;44.696;10.522;2023-06-22T06:36:13;100835.91;;;28.44;98.53
56006;BME280;41888;44.696;10.522;2023-06-22T06:38:39;100830.63;;;28.56;95.86
56006;BME280;41888;44.696;10.522;2023-06-22T06:41:05;100827.59;;;28.27;95.88
56006;BME280;41888;44.696;10.522;2023-06-22T06:43:31;100831.44;;;28.56;93.00
56006;BME280;41888;44.696;10.522;2023-06-22T06:45:58;100833.44;;;28.34;92.33
56006;BME280;41888;44.696;10.522;2023-06-22T06:48:24;100831.63;;;28.29;93.23
56006;BME280;41888;44.696;10.522;2023-06-22T06:50:50;100827.47;;;28.63;91.46
56006;BME280;41888;44.696;10.522;2023-06-22T06:53:16;100822.56;;;28.82;83.56
56006;BME280;41888;44.696;10.522;2023-06-22T06:55:42;100826.94;;;28.52;77.46
56006;BME280;41888;44.696;10.522;2023-06-22T06:58:11;100824.84;;;28.88;76.54
56006;BME280;41888;44.696;10.522;2023-06-22T07:00:39;100819.47;;;29.23;77.65
56006;BME280;41888;44.696;10.522;2023-06-22T07:03:05;100821.78;;;29.47;70.81
56006;BME280;41888;44.696;10.522;2023-06-22T07:05:33;100822.13;;;29.45;70.63
56006;BME280;41888;44.696;10.522;2023-06-22T07:07:59;100815.19;;;29.65;68.24
56006;BME280;41888;44.696;10.522;2023-06-22T07:10:25;100819.53;;;29.57;68.43
56006;BME280;41888;44.696;10.522;2023-06-22T07:12:51;100819.38;;;29.54;67.18
56006;BME280;41888;44.696;10.522;2023-06-22T07:15:18;100806.59;;;29.84;68.55
56006;BME280;41888;44.696;10.522;2023-06-22T07:17:44;100805.47;;;30.10;66.98
56006;BME280;41888;44.696;10.522;2023-06-22T07:20:11;100807.19;;;30.32;63.64
56006;BME280;41888;44.696;10.522;2023-06-22T07:22:43;100813.25;;;30.63;63.30
56006;BME280;41888;44.696;10.522;2023-06-22T07:25:12;100809.84;;;30.67;64.04
56006;BME280;41888;44.696;10.522;2023-06-22T07:27:57;100814.41;;;30.92;60.42
56006;BME280;41888;44.696;10.522;2023-06-22T07:30:24;100813.66;;;31.12;61.42
56006;BME280;41888;44.696;10.522;2023-06-22T07:32:50;100815.28;;;31.13;59.62
56006;BME280;41888;44.696;10.522;2023-06-22T07:35:16;100824.94;;;31.19;57.39
56006;BME280;41888;44.696;10.522;2023-06-22T07:37:43;100828.44;;;31.28;58.68
56006;BME280;41888;44.696;10.522;2023-06-22T07:40:10;100834.47;;;31.42;62.12
56006;BME280;41888;44.696;10.522;2023-06-22T07:42:36;100831.88;;;31.46;63.95
56006;BME280;41888;44.696;10.522;2023-06-22T07:45:03;100825.78;;;31.40;58.93
56006;BME280;41888;44.696;10.522;2023-06-22T07:47:30;100831.06;;;31.25;58.85
56006;BME280;41888;44.696;10.522;2023-06-22T07:49:58;100832.06;;;31.41;60.70
56006;BME280;41888;44.696;10.522;2023-06-22T07:52:27;100832.28;;;31.57;60.91
56006;BME280;41888;44.696;10.522;2023-06-22T07:54:53;100832.88;;;31.62;63.39
56006;BME280;41888;44.696;10.522;2023-06-22T07:57:20;100839.19;;;31.63;61.19
56006;BME280;41888;44.696;10.522;2023-06-22T07:59:46;100825.66;;;31.58;59.45
56006;BME280;41888;44.696;10.522;2023-06-22T08:02:13;100816.59;;;31.57;59.85
56006;BME280;41888;44.696;10.522;2023-06-22T08:04:39;100806.72;;;31.35;58.97
56006;BME280;41888;44.696;10.522;2023-06-22T08:07:07;100810.91;;;31.12;60.06
56006;BME280;41888;44.696;10.522;2023-06-22T08:09:33;100812.75;;;31.29;60.56
56006;BME280;41888;44.696;10.522;2023-06-22T08:12:00;100800.41;;;31.14;61.35
56006;BME280;41888;44.696;10.522;2023-06-22T08:14:27;100801.22;;;31.35;62.14
56006;BME280;41888;44.696;10.522;2023-06-22T08:16:53;100800.22;;;31.40;60.92
56006;BME280;41888;44.696;10.522;2023-06-22T08:19:19;100805.91;;;31.35;57.89
56006;BME280;41888;44.696;10.522;2023-06-22T08:21:46;100805.03;;;30.93;58.10
56006;BME280;41888;44.696;10.522;2023-06-22T08:24:12;100811.09;;;31.07;58.41
56006;BME280;41888;44.696;10.522;2023-06-22T08:26:38;100807.66;;;31.19;58.79
56006;BME280;41888;44.696;10.522;2023-06-22T08:29:05;100810.72;;;31.17;60.83
56006;BME280;41888;44.696;10.522;2023-06-22T08:31:32;100823.69;;;31.37;62.69
56006;BME280;41888;44.696;10.522;2023-06-22T08:34:00;100815.50;;;31.50;63.42
56006;BME280;41888;44.696;10.522;2023-06-22T08:36:26;100812.41;;;31.30;60.61
56006;BME280;41888;44.696;10.522;2023-06-22T08:38:56;100806.44;;;31.49;59.52
56006;BME280;41888;44.696;10.522;2023-06-22T08:41:23;100806.44;;;31.49;61.65
56006;BME280;41888;44.696;10.522;2023-06-22T08:43:51;100809.63;;;31.60;62.10
56006;BME280;41888;44.696;10.522;2023-06-22T08:46:17;100799.34;;;31.69;61.47
56006;BME280;41888;44.696;10.522;2023-06-22T08:48:48;100785.59;;;31.69;59.47
56006;BME280;41888;44.696;10.522;2023-06-22T08:51:14;100772.91;;;31.56;60.96
56006;BME280;41888;44.696;10.522;2023-06-22T08:53:40;100756.28;;;31.31;58.23
56006;BME280;41888;44.696;10.522;2023-06-22T08:56:07;100761.53;;;31.24;60.23
56006;BME280;41888;44.696;10.522;2023-06-22T08:58:33;100780.56;;;31.09;61.99
56006;BME280;41888;44.696;10.522;2023-06-22T09:00:59;100802.06;;;31.48;63.02
56006;BME280;41888;44.696;10.522;2023-06-22T09:03:27;100805.50;;;31.45;60.11
56006;BME280;41888;44.696;10.522;2023-06-22T09:05:53;100801.38;;;31.60;60.43
56006;BME280;41888;44.696;10.522;2023-06-22T09:08:20;100810.63;;;31.76;61.39
56006;BME280;41888;44.696;10.522;2023-06-22T09:10:46;100813.97;;;31.81;62.60
56006;BME280;41888;44.696;10.522;2023-06-22T09:13:12;100816.97;;;31.88;61.07
56006;BME280;41888;44.696;10.522;2023-06-22T09:15:38;100805.66;;;31.69;61.03
56006;BME280;41888;44.696;10.522;2023-06-22T09:18:05;100811.84;;;31.66;60.02
56006;BME280;41888;44.696;10.522;2023-06-22T09:20:31;100818.34;;;31.62;61.07
56006;BME280;41888;44.696;10.522;2023-06-22T09:22:57;100822.06;;;31.78;62.13
56006;BME280;41888;44.696;10.522;2023-06-22T09:25:24;100809.19;;;31.91;61.48
56006;BME280;41888;44.696;10.522;2023-06-22T09:27:50;100801.41;;;31.93;58.45
56006;BME280;41888;44.696;10.522;2023-06-22T09:30:16;100786.28;;;31.99;58.33
56006;BME280;41888;44.696;10.522;2023-06-22T09:32:42;100785.09;;;31.88;56.37
56006;BME280;41888;44.696;10.522;2023-06-22T09:35:09;100779.44;;;31.72;55.30
56006;BME280;41888;44.696;10.522;2023-06-22T09:37:38;100773.53;;;31.94;55.95
56006;BME280;41888;44.696;10.522;2023-06-22T09:40:06;100768.91;;;31.86;56.37
56006;BME280;41888;44.696;10.522;2023-06-22T09:42:35;100766.09;;;31.62;55.11
56006;BME280;41888;44.696;10.522;2023-06-22T09:45:02;100765.53;;;31.68;55.32
56006;BME280;41888;44.696;10.522;2023-06-22T09:47:29;100774.78;;;31.22;55.65
56006;BME280;41888;44.696;10.522;2023-06-22T09:49:55;100779.47;;;31.42;58.40
56006;BME280;41888;44.696;10.522;2023-06-22T09:52:21;100778.03;;;31.66;57.92
56006;BME280;41888;44.696;10.522;2023-06-22T09:54:48;100756.47;;;31.26;57.55
56006;BME280;41888;44.696;10.522;2023-06-22T09:57:14;100750.00;;;31.01;57.54
56006;BME280;41888;44.696;10.522;2023-06-22T09:59:40;100748.72;;;30.99;55.86
56006;BME280;41888;44.696;10.522;2023-06-22T10:02:07;100744.41;;;31.39;53.79
56006;BME280;41888;44.696;10.522;2023-06-22T10:04:34;100742.28;;;31.78;53.60
56006;BME280;41888;44.696;10.522;2023-06-22T10:07:01;100753.75;;;31.80;51.08
56006;BME280;41888;44.696;10.522;2023-06-22T10:09:27;100762.28;;;31.99;52.92
56006;BME280;41888;44.696;10.522;2023-06-22T10:11:54;100769.34;;;32.09;53.30
56006;BME280;41888;44.696;10.522;2023-06-22T10:14:20;100770.56;;;31.99;53.01
56006;BME280;41888;44.696;10.522;2023-06-22T10:16:47;100790.28;;;32.34;53.06
56006;BME280;41888;44.696;10.522;2023-06-22T10:19:14;100778.69;;;32.28;52.15
56006;BME280;41888;44.696;10.522;2023-06-22T10:21:40;100766.97;;;32.19;52.97
56006;BME280;41888;44.696;10.522;2023-06-22T10:24:06;100762.28;;;32.32;55.44
56006;BME280;41888;44.696;10.522;2023-06-22T10:26:33;100760.59;;;32.52;56.60
56006;BME280;41888;44.696;10.522;2023-06-22T10:29:00;100752.31;;;32.52;55.97
56006;BME280;41888;44.696;10.522;2023-06-22T10:31:27;100752.34;;;32.76;56.21
56006;BME280;41888;44.696;10.522;2023-06-22T10:33:54;100748.78;;;32.88;55.74
56006;BME280;41888;44.696;10.522;2023-06-22T10:36:21;100750.25;;;32.97;54.35
56006;BME280;41888;44.696;10.522;2023-06-22T10:38:47;100751.72;;;32.95;53.70
56006;BME280;41888;44.696;10.522;2023-06-22T10:41:14;100743.09;;;33.08;56.03
56006;BME280;41888;44.696;10.522;2023-06-22T10:43:41;100741.31;;;32.76;54.44
56006;BME280;41888;44.696;10.522;2023-06-22T10:46:07;100733.28;;;32.83;52.98
56006;BME280;41888;44.696;10.522;2023-06-22T10:48:33;100732.06;;;32.11;51.62
56006;BME280;41888;44.696;10.522;2023-06-22T10:50:59;100725.78;;;32.23;53.36
56006;BME280;41888;44.696;10.522;2023-06-22T10:53:26;100727.28;;;32.45;52.57
56006;BME280;41888;44.696;10.522;2023-06-22T10:55:52;100720.31;;;32.72;53.26
56006;BME280;41888;44.696;10.522;2023-06-22T10:58:19;100724.31;;;32.74;52.04
56006;BME280;41888;44.696;10.522;2023-06-22T11:00:46;100724.41;;;32.29;53.30
56006;BME280;41888;44.696;10.522;2023-06-22T11:03:12;100723.41;;;32.70;51.83
56006;BME280;41888;44.696;10.522;2023-06-22T11:05:40;100724.63;;;32.36;52.57
56006;BME280;41888;44.696;10.522;2023-06-22T11:08:07;100722.59;;;32.45;51.94
56006;BME280;41888;44.696;10.522;2023-06-22T11:10:33;100714.75;;;32.84;51.70
56006;BME280;41888;44.696;10.522;2023-06-22T11:12:59;100720.97;;;32.81;52.18
56006;BME280;41888;44.696;10.522;2023-06-22T11:15:26;100726.16;;;32.82;52.13
56006;BME280;41888;44.696;10.522;2023-06-22T11:17:52;100710.59;;;33.02;50.11
56006;BME280;41888;44.696;10.522;2023-06-22T11:20:18;100704.91;;;32.83;50.36
56006;BME280;41888;44.696;10.522;2023-06-22T11:22:44;100701.94;;;32.51;50.61
56006;BME280;41888;44.696;10.522;2023-06-22T11:25:10;100693.31;;;32.53;51.39
56006;BME280;41888;44.696;10.522;2023-06-22T11:27:39;100686.22;;;32.40;51.06
56006;BME280;41888;44.696;10.522;2023-06-22T11:30:06;100671.28;;;32.53;52.56
56006;BME280;41888;44.696;10.522;2023-06-22T11:32:34;100671.97;;;32.62;50.92
56006;BME280;41888;44.696;10.522;2023-06-22T11:35:01;100665.19;;;32.47;51.32
56006;BME280;41888;44.696;10.522;2023-06-22T11:37:27;100656.94;;;32.47;53.96
56006;BME280;41888;44.696;10.522;2023-06-22T11:39:53;100654.22;;;32.35;53.12
56006;BME280;41888;44.696;10.522;2023-06-22T11:42:21;100645.34;;;32.42;53.64
56006;BME280;41888;44.696;10.522;2023-06-22T11:44:51;100637.31;;;32.61;53.28
56006;BME280;41888;44.696;10.522;2023-06-22T11:47:17;100643.75;;;32.65;52.51
56006;BME280;41888;44.696;10.522;2023-06-22T11:49:43;100639.53;;;32.19;53.21
56006;BME280;41888;44.696;10.522;2023-06-22T11:52:10;100630.34;;;32.27;53.19
56006;BME280;41888;44.696;10.522;2023-06-22T11:54:36;100631.13;;;31.91;53.69
56006;BME280;41888;44.696;10.522;2023-06-22T11:57:03;100627.25;;;32.28;53.99
56006;BME280;41888;44.696;10.522;2023-06-22T11:59:29;100631.13;;;32.40;53.17
56006;BME280;41888;44.696;10.522;2023-06-22T12:01:56;100630.75;;;33.05;54.13
56006;BME280;41888;44.696;10.522;2023-06-22T12:04:24;100629.25;;;33.20;50.94
56006;BME280;41888;44.696;10.522;2023-06-22T12:06:50;100621.91;;;33.40;50.72
56006;BME280;41888;44.696;10.522;2023-06-22T12:09:16;100616.22;;;33.64;51.06
56006;BME280;41888;44.696;10.522;2023-06-22T12:11:42;100617.94;;;33.84;50.81
56006;BME280;41888;44.696;10.522;2023-06-22T12:14:08;100615.38;;;33.32;50.07
56006;BME280;41888;44.696;10.522;2023-06-22T12:16:34;100607.88;;;33.05;50.15
56006;BME280;41888;44.696;10.522;2023-06-22T12:19:01;100603.28;;;33.37;50.11
56006;BME280;41888;44.696;10.522;2023-06-22T12:21:27;100600.00;;;33.03;50.58
56006;BME280;41888;44.696;10.522;2023-06-22T12:23:54;100593.56;;;32.72;49.91
56006;BME280;41888;44.696;10.522;2023-06-22T12:26:21;100589.69;;;33.16;50.31
56006;BME280;41888;44.696;10.522;2023-06-22T12:28:48;100605.16;;;33.33;51.46
56006;BME280;41888;44.696;10.522;2023-06-22T12:31:14;100601.41;;;33.25;49.57
56006;BME280;41888;44.696;10.522;2023-06-22T12:33:41;100602.09;;;33.22;50.83
56006;BME280;41888;44.696;10.522;2023-06-22T12:36:07;100603.63;;;33.20;52.60
56006;BME280;41888;44.696;10.522;2023-06-22T12:38:33;100592.13;;;33.18;51.28